Time;durP1;ratioP1;P1;durP2;ratioP2;P2;SDS_P1;SDS_P2;PMS_P1;PMS_P2;Temp;Humidity;BMP_temperature;BMP_pressure;BME280_temperature;BME280_humidity;BME280_pressure;Samples;Min_cycle;Max_cycle;Signal;HPM_P1;HPM_P2
2023/07/20 00:04:07;;;;;;;2.03;1.70;;;13.60;99.90;;;;;;10448155;28;20283;-79
2023/07/20 00:09:28;;;;;;;2.83;1.90;;;13.60;1.00;;;;;;10441989;28;20659;-80
2023/07/20 00:14:53;;;;;;;2.55;2.17;;;13.50;1.00;;;;;;10493631;28;20205;-79
2023/07/20 00:20:14;;;;;;;4.90;2.53;;;13.50;99.90;;;;;;10464898;28;20205;-79
2023/07/20 00:25:36;;;;;;;4.35;2.47;;;13.40;99.90;;;;;;10489859;28;20338;-82
2023/07/20 00:30:59;;;;;;;6.45;2.45;;;13.40;99.90;;;;;;10479171;28;20381;-83
2023/07/20 00:36:21;;;;;;;3.80;2.42;;;13.30;1.00;;;;;;10480931;28;20201;-79
2023/07/20 00:41:42;;;;;;;3.30;2.22;;;13.20;1.00;;;;;;10476135;28;20206;-79
2023/07/20 00:47:05;;;;;;;5.35;2.50;;;13.20;99.90;;;;;;10449087;28;20598;-83
2023/07/20 00:52:28;;;;;;;3.15;2.20;;;13.20;1.00;;;;;;10426730;28;20479;-79
2023/07/20 00:57:50;;;;;;;5.55;2.55;;;13.20;99.90;;;;;;10467657;28;20228;-83
2023/07/20 01:03:11;;;;;;;2.95;1.88;;;13.10;99.90;;;;;;10475573;28;20399;-84
2023/07/20 01:08:38;;;;;;;3.83;2.53;;;;;;;;;;10450397;28;20243;-80
2023/07/20 01:13:59;;;;;;;3.30;2.25;;;13.30;99.90;;;;;;10483859;28;20211;-81
2023/07/20 01:19:20;;;;;;;4.22;2.50;;;13.20;99.90;;;;;;10462451;28;20289;-81
2023/07/20 01:25:27;;;;;;;4.63;3.08;;;13.20;99.90;;;;;;10463184;28;20200;-79
2023/07/20 01:31:13;;;;;;;4.43;3.15;;;13.20;1.00;;;;;;10360804;28;20212;-80
2023/07/20 01:36:37;;;;;;;4.88;2.88;;;13.10;1.00;;;;;;10377870;28;20515;-80
2023/07/20 01:41:59;;;;;;;7.15;3.63;;;13.20;1.00;;;;;;10391656;28;20289;-79
2023/07/20 01:47:21;;;;;;;5.47;2.80;;;13.20;1.00;;;;;;10375959;28;20248;-79
2023/07/20 01:52:42;;;;;;;2.25;1.90;;;13.30;1.00;;;;;;10377327;28;20350;-79
2023/07/20 01:58:05;;;;;;;2.38;2.00;;;13.50;1.00;;;;;;10377577;28;20230;-79
2023/07/20 02:03:26;;;;;;;2.72;1.70;;;13.60;99.90;;;;;;10378676;28;20202;-79
2023/07/20 02:08:48;;;;;;;2.53;1.48;;;13.70;1.00;;;;;;10464281;28;20251;-79
2023/07/20 02:14:09;;;;;;;4.13;1.83;;;13.90;1.00;;;;;;10482976;28;20482;-81
2023/07/20 02:19:31;;;;;;;3.03;1.77;;;13.90;1.00;;;;;;10456220;28;20189;-79
2023/07/20 02:24:52;;;;;;;3.70;2.95;;;13.90;99.90;;;;;;10479306;28;20519;-80
2023/07/20 02:30:16;;;;;;;5.22;3.20;;;13.80;1.00;;;;;;10456058;28;20207;-80
2023/07/20 02:35:37;;;;;;;3.95;2.83;;;13.70;1.00;;;;;;10468527;28;20223;-80
2023/07/20 02:40:58;;;;;;;4.07;2.55;;;13.90;99.90;;;;;;10469745;28;20274;-81
2023/07/20 02:46:19;;;;;;;6.85;3.80;;;13.90;1.00;;;;;;10473773;28;20547;-80
2023/07/20 02:51:40;;;;;;;6.72;3.40;;;13.80;99.90;;;;;;10467411;28;20206;-80
2023/07/20 02:57:02;;;;;;;3.72;2.83;;;13.80;99.90;;;;;;10468799;28;20500;-80
2023/07/20 03:02:23;;;;;;;4.22;2.85;;;13.80;1.00;;;;;;10481643;28;20480;-80
2023/07/20 03:07:45;;;;;;;4.60;2.60;;;13.80;1.00;;;;;;10453775;28;20229;-83
2023/07/20 03:13:06;;;;;;;2.85;2.40;;;13.90;1.00;;;;;;10483309;28;20194;-82
2023/07/20 03:18:28;;;;;;;3.03;2.10;;;13.90;99.90;;;;;;10465584;28;20205;-82
2023/07/20 03:23:49;;;;;;;2.60;1.80;;;14.00;99.90;;;;;;10481446;28;20272;-81
2023/07/20 03:29:11;;;;;;;3.47;1.70;;;14.10;1.00;;;;;;10482555;28;20220;-79
2023/07/20 03:34:32;;;;;;;3.55;1.88;;;14.20;1.00;;;;;;10479622;28;20253;-83
2023/07/20 03:39:53;;;;;;;1.67;1.42;;;14.20;1.00;;;;;;10440060;28;20195;-79
2023/07/20 03:45:15;;;;;;;1.88;1.63;;;14.20;99.90;;;;;;10439123;28;20458;-79
2023/07/20 03:50:36;;;;;;;4.30;2.10;;;14.30;1.00;;;;;;10464818;28;20449;-82
2023/07/20 03:55:57;;;;;;;1.83;1.60;;;14.40;1.00;;;;;;10481030;28;20371;-80
2023/07/20 04:01:19;;;;;;;4.28;1.55;;;14.50;99.90;;;;;;10480061;28;20206;-83
2023/07/20 04:06:40;;;;;;;2.42;1.75;;;14.40;99.90;;;;;;10445604;28;20230;-81
2023/07/20 04:12:01;;;;;;;2.03;1.63;;;14.50;1.00;;;;;;10463264;28;20196;-81
2023/07/20 04:17:23;;;;;;;4.03;1.85;;;14.70;1.00;;;;;;10479270;28;20193;-83
2023/07/20 04:22:44;;;;;;;1.92;1.65;;;14.80;1.00;;;;;;10460546;28;20492;-82
2023/07/20 04:28:11;;;;;;;1.55;1.38;;;14.90;1.00;;;;;;10439380;28;20524;-82
2023/07/20 04:33:37;;;;;;;1.88;1.60;;;15.00;1.00;;;;;;10454029;28;20200;-83
2023/07/20 04:38:58;;;;;;;2.08;1.65;;;15.10;99.90;;;;;;10456548;28;20579;-81
2023/07/20 04:44:27;;;;;;;2.17;1.52;;;15.10;99.90;;;;;;10436822;28;20231;-79
2023/07/20 04:49:48;;;;;;;4.35;1.70;;;15.10;1.00;;;;;;10463023;28;20238;-83
2023/07/20 04:55:10;;;;;;;1.20;1.10;;;15.10;99.90;;;;;;10463679;28;20198;-83
2023/07/20 05:00:34;;;;;;;2.50;1.55;;;15.20;1.00;;;;;;10460246;28;20209;-82
2023/07/20 05:05:57;;;;;;;2.17;1.58;;;15.20;91.10;;;;;;10463440;28;20235;-80
2023/07/20 05:11:19;;;;;;;4.45;2.00;;;15.30;1.00;;;;;;10464813;28;20309;-82
2023/07/20 05:16:40;;;;;;;3.15;1.50;;;15.40;1.00;;;;;;10445334;28;20202;-79
2023/07/20 05:22:04;;;;;;;4.40;1.60;;;15.50;99.90;;;;;;10477363;28;20193;-82
2023/07/20 05:27:26;;;;;;;2.40;1.08;;;15.50;1.00;;;;;;10461781;28;20233;-84
2023/07/20 05:32:50;;;;;;;4.35;1.95;;;15.70;99.90;;;;;;10449520;28;20225;-87
2023/07/20 05:38:12;;;;;;;4.35;2.17;;;15.60;1.00;;;;;;10463647;28;20398;-85
2023/07/20 05:43:33;;;;;;;4.43;1.60;;;15.50;1.00;;;;;;10443421;28;20214;-83
2023/07/20 05:48:54;;;;;;;3.60;1.70;;;15.50;35.70;;;;;;10454036;28;20229;-83
2023/07/20 05:54:16;;;;;;;2.75;2.03;;;15.50;1.00;;;;;;10462639;28;20196;-85
2023/07/20 05:59:38;;;;;;;2.90;1.92;;;15.50;99.90;;;;;;10448016;28;20309;-82
2023/07/20 06:04:59;;;;;;;2.70;1.80;;;15.50;99.90;;;;;;10462512;28;20198;-82
2023/07/20 06:10:20;;;;;;;2.50;1.65;;;15.60;99.90;;;;;;10462924;28;20200;-85
2023/07/20 06:15:42;;;;;;;2.55;1.45;;;15.70;99.90;;;;;;10420199;28;20218;-86
2023/07/20 06:21:06;;;;;;;5.40;1.67;;;;;;;;;;10438704;28;20410;-82
2023/07/20 06:26:29;;;;;;;2.50;1.63;;;;;;;;;;10451422;28;20222;-81
2023/07/20 06:31:51;;;;;;;4.28;1.65;;;;;;;;;;10464752;28;20205;-82
2023/07/20 06:37:13;;;;;;;4.00;2.08;;;;;;;;;;10436427;28;20210;-82
2023/07/20 06:42:35;;;;;;;2.67;1.80;;;;;;;;;;10434328;28;20456;-84
2023/07/20 06:47:59;;;;;;;3.47;1.48;;;16.70;1.00;;;;;;10466727;28;20272;-85
2023/07/20 06:53:20;;;;;;;3.30;1.48;;;16.60;1.00;;;;;;10464889;28;20213;-86
2023/07/20 06:58:42;;;;;;;3.38;1.23;;;16.90;99.90;;;;;;10467473;28;20520;-82
2023/07/20 07:04:05;;;;;;;1.98;1.10;;;17.60;99.90;;;;;;10466846;28;20215;-83
2023/07/20 07:09:26;;;;;;;1.70;1.30;;;18.60;99.90;;;;;;10482685;28;20402;-84
2023/07/20 07:14:48;;;;;;;1.52;1.10;;;19.40;1.00;;;;;;10468448;28;20200;-86
2023/07/20 07:20:09;;;;;;;1.13;0.88;;;19.50;99.90;;;;;;10466078;28;20203;-86
2023/07/20 07:25:32;;;;;;;5.03;1.33;;;20.00;99.90;;;;;;10467906;28;20199;-85
2023/07/20 07:30:56;;;;;;;2.20;0.93;;;19.80;99.90;;;;;;10400414;28;20236;-80
2023/07/20 07:36:18;;;;;;;1.75;1.15;;;20.00;99.90;;;;;;10367850;28;20569;-78
2023/07/20 07:41:39;;;;;;;0.88;0.88;;;20.60;1.00;;;;;;10361188;28;20198;-80
2023/07/20 07:47:00;;;;;;;1.88;1.10;;;20.40;1.00;;;;;;10384166;28;20244;-81
2023/07/20 07:52:22;;;;;;;1.08;0.90;;;20.20;1.00;;;;;;10350967;28;20200;-79
2023/07/20 07:57:44;;;;;;;1.63;1.00;;;20.30;1.00;;;;;;10377486;28;20276;-80
2023/07/20 08:03:08;;;;;;;3.30;1.30;;;20.30;1.00;;;;;;10377930;28;20255;-79
2023/07/20 08:08:31;;;;;;;2.22;0.98;;;20.50;1.00;;;;;;10377896;28;20225;-82
2023/07/20 08:13:52;;;;;;;2.83;1.52;;;20.50;1.00;;;;;;10375188;28;20766;-80
2023/07/20 08:19:14;;;;;;;2.67;0.93;;;20.20;1.00;;;;;;10393299;28;20408;-79
2023/07/20 08:24:39;;;;;;;3.53;1.00;;;20.10;1.00;;;;;;10400427;28;20522;-81
2023/07/20 08:30:00;;;;;;;1.10;0.60;;;19.60;1.00;;;;;;10362714;28;20237;-80
2023/07/20 08:35:21;;;;;;;2.63;0.82;;;19.10;1.00;;;;;;10407541;28;20390;-81
2023/07/20 08:40:46;;;;;;;3.28;1.00;;;19.70;1.00;;;;;;10405194;28;20205;-82
2023/07/20 08:46:07;;;;;;;2.40;0.90;;;20.40;1.00;;;;;;10366199;28;20256;-79
2023/07/20 08:51:30;;;;;;;1.90;1.00;;;20.30;1.00;;;;;;10401407;28;20211;-78
2023/07/20 08:56:51;;;;;;;1.90;1.10;;;20.00;1.00;;;;;;10362833;28;20453;-79
2023/07/20 09:02:17;;;;;;;1.00;0.70;;;19.50;99.90;;;;;;10390953;28;20208;-80
2023/07/20 09:07:40;;;;;;;1.77;0.60;;;18.90;1.00;;;;;;10401510;28;20347;-78
2023/07/20 09:13:01;;;;;;;0.90;0.50;;;18.60;1.00;;;;;;10391273;28;20185;-79
2023/07/20 09:18:29;;;;;;;1.17;0.70;;;19.00;1.00;;;;;;10404753;28;20213;-79
2023/07/20 09:23:56;;;;;;;0.70;0.65;;;19.80;1.00;;;;;;10405563;28;20193;-80
2023/07/20 09:29:19;;;;;;;2.67;0.63;;;20.30;1.00;;;;;;10373214;28;20221;-83
2023/07/20 09:34:40;;;;;;;1.70;0.70;;;21.90;1.00;;;;;;10363922;28;20255;-81
2023/07/20 09:40:02;;;;;;;0.77;0.60;;;22.80;99.90;;;;;;10374900;28;20323;-79
2023/07/20 09:45:33;;;;;;;0.95;0.50;;;23.00;99.90;;;;;;10387298;28;20320;-81
2023/07/20 09:50:57;;;;;;;2.00;0.82;;;23.70;99.90;;;;;;10375124;28;20201;-81
2023/07/20 09:56:23;;;;;;;1.60;1.00;;;24.30;99.90;;;;;;10392356;28;20267;-83
2023/07/20 10:01:47;;;;;;;1.17;0.88;;;24.20;99.90;;;;;;10371680;28;20269;-81
2023/07/20 10:07:12;;;;;;;0.82;0.80;;;24.20;99.90;;;;;;10381458;28;20865;-85
2023/07/20 10:12:34;;;;;;;5.18;2.50;;;24.60;99.90;;;;;;10350176;28;20217;-82
2023/07/20 10:18:08;;;;;;;2.35;0.75;;;24.90;99.90;;;;;;10354811;28;20200;-89
2023/07/20 10:23:30;;;;;;;5.93;1.13;;;23.80;99.90;;;;;;10386767;28;20296;-82
2023/07/20 10:28:52;;;;;;;2.55;1.10;;;21.80;99.90;;;;;;10377960;28;20232;-84
2023/07/20 10:34:15;;;;;;;2.42;1.13;;;21.10;1.00;;;;;;10364775;28;20211;-81
2023/07/20 10:39:36;;;;;;;3.47;1.20;;;20.30;1.00;;;;;;10369003;28;20204;-80
2023/07/20 10:44:57;;;;;;;3.40;0.80;;;20.00;99.90;;;;;;10357436;28;20558;-79
2023/07/20 10:50:21;;;;;;;2.05;0.63;;;20.20;1.00;;;;;;10379417;28;20252;-81
2023/07/20 10:55:46;;;;;;;0.68;0.68;;;20.60;1.00;;;;;;10381586;28;20201;-81
2023/07/20 11:01:07;;;;;;;1.08;0.70;;;20.70;1.00;;;;;;10359179;28;20232;-86
2023/07/20 11:06:36;;;;;;;0.52;0.50;;;20.00;1.00;;;;;;10389774;28;20241;-81
2023/07/20 11:12:13;;;;;;;1.23;0.60;;;19.40;99.90;;;;;;10367698;28;20264;-86
2023/07/20 11:17:35;;;;;;;0.50;0.50;;;19.10;99.90;;;;;;10355899;28;20388;-85
2023/07/20 11:22:57;;;;;;;0.30;0.30;;;18.70;1.00;;;;;;10366516;28;20213;-79
2023/07/20 11:28:18;;;;;;;0.60;0.50;;;18.50;1.00;;;;;;10394462;28;20228;-85
2023/07/20 11:33:39;;;;;;;0.52;0.40;;;18.60;99.90;;;;;;10325635;28;20206;-81
2023/07/20 11:39:01;;;;;;;1.88;0.70;;;18.80;1.00;;;;;;10379411;28;20208;-81
2023/07/20 11:44:28;;;;;;;0.95;0.50;;;19.70;1.00;;;;;;10361107;28;20229;-81
2023/07/20 11:49:54;;;;;;;5.13;3.22;;;20.30;99.90;;;;;;10394441;28;20232;-83
2023/07/20 11:55:15;;;;;;;0.55;0.45;;;20.40;1.00;;;;;;10367193;28;20219;-82
2023/07/20 12:00:39;;;;;;;0.57;0.47;;;20.30;1.00;;;;;;10396149;28;20216;-89
2023/07/20 12:06:10;;;;;;;0.35;0.32;;;20.60;1.00;;;;;;10380512;28;20400;-82
2023/07/20 12:11:36;;;;;;;0.82;0.60;;;20.50;1.00;;;;;;10369648;28;20201;-81
2023/07/20 12:16:58;;;;;;;0.50;0.40;;;20.20;1.00;;;;;;10352312;28;20516;-82
2023/07/20 12:22:19;;;;;;;1.70;0.40;;;20.00;1.00;;;;;;10339050;28;20202;-85
2023/07/20 12:27:41;;;;;;;0.75;0.60;;;19.80;1.00;;;;;;10397599;28;20232;-80
2023/07/20 12:33:04;;;;;;;1.85;0.88;;;19.40;1.00;;;;;;10417966;28;20202;-79
2023/07/20 12:38:27;;;;;;;1.00;0.70;;;19.10;1.00;;;;;;10435606;28;20201;-80
2023/07/20 12:43:49;;;;;;;1.17;0.80;;;19.20;1.00;;;;;;10347358;28;20198;-83
2023/07/20 12:49:11;;;;;;;1.25;0.70;;;19.10;1.00;;;;;;10376517;28;20479;-82
2023/07/20 12:54:32;;;;;;;0.60;0.57;;;19.10;30.60;;;;;;10376388;28;20495;-80
2023/07/20 12:59:53;;;;;;;2.50;0.60;;;19.20;99.90;;;;;;10379471;28;20243;-83
2023/07/20 13:05:16;;;;;;;0.95;0.60;;;20.00;99.90;;;;;;10406398;28;20224;-78
2023/07/20 13:10:38;;;;;;;0.70;0.63;;;20.30;1.00;;;;;;10374249;28;20237;-81
2023/07/20 13:15:59;;;;;;;1.13;0.60;;;20.50;1.00;;;;;;10350400;28;20424;-80
2023/07/20 13:21:22;;;;;;;0.68;0.60;;;21.10;1.00;;;;;;10386266;28;20409;-78
2023/07/20 13:26:44;;;;;;;1.85;0.80;;;21.50;1.00;;;;;;10387930;28;20473;-79
2023/07/20 13:32:07;;;;;;;0.95;0.60;;;21.70;1.00;;;;;;10377213;28;20252;-81
2023/07/20 13:37:28;;;;;;;1.23;0.88;;;21.80;1.00;;;;;;10338137;28;20229;-82
2023/07/20 13:42:50;;;;;;;0.85;0.70;;;21.40;1.00;;;;;;10374691;28;20523;-83
2023/07/20 13:48:11;;;;;;;5.00;0.80;;;21.00;1.00;;;;;;10387944;28;20272;-81
2023/07/20 13:53:33;;;;;;;2.53;0.68;;;20.50;1.00;;;;;;10404360;28;20459;-79
2023/07/20 13:58:57;;;;;;;0.73;0.60;;;20.60;1.00;;;;;;10385568;28;20193;-80
2023/07/20 14:04:19;;;;;;;2.60;0.75;;;20.50;1.00;;;;;;10405619;28;20201;-81
2023/07/20 14:09:40;;;;;;;1.70;0.70;;;20.60;1.00;;;;;;10395491;28;20306;-84
2023/07/20 14:15:21;;;;;;;5.20;0.63;;;20.60;1.00;;;;;;10395257;28;20220;-78
2023/07/20 14:20:44;;;;;;;0.68;0.60;;;20.80;1.00;;;;;;10396405;28;20205;-77
2023/07/20 14:26:05;;;;;;;6.47;1.00;;;20.80;1.00;;;;;;10395433;28;20197;-77
2023/07/20 14:31:26;;;;;;;3.58;1.00;;;21.10;1.00;;;;;;10381068;28;20267;-79
2023/07/20 14:36:49;;;;;;;1.38;0.70;;;21.00;1.00;;;;;;10402427;28;20214;-78
2023/07/20 14:42:11;;;;;;;0.95;0.50;;;21.00;1.00;;;;;;10395723;28;20240;-77
2023/07/20 14:47:34;;;;;;;1.27;0.60;;;21.20;1.00;;;;;;10376459;28;20265;-78
2023/07/20 14:52:56;;;;;;;0.43;0.43;;;21.20;1.00;;;;;;10357268;28;20387;-81
2023/07/20 14:58:17;;;;;;;2.67;0.93;;;21.30;99.90;;;;;;10364671;28;20201;-78
2023/07/20 15:03:38;;;;;;;0.65;0.47;;;21.40;99.90;;;;;;10371575;28;20608;-77
2023/07/20 15:09:00;;;;;;;0.93;0.50;;;21.40;99.90;;;;;;10369697;28;20226;-78
2023/07/20 15:14:22;;;;;;;3.58;0.57;;;21.30;1.00;;;;;;10387181;28;20200;-81
2023/07/20 15:19:43;;;;;;;0.80;0.60;;;21.30;1.00;;;;;;10385448;28;20205;-78
2023/07/20 15:25:06;;;;;;;0.68;0.57;;;21.20;1.00;;;;;;10398596;28;20197;-78
2023/07/20 15:30:28;;;;;;;2.13;0.70;;;21.10;1.00;;;;;;10387883;28;20248;-81
2023/07/20 15:35:53;;;;;;;0.50;0.50;;;20.80;1.00;;;;;;10393044;28;20503;-83
2023/07/20 15:41:14;;;;;;;1.73;0.60;;;20.90;1.00;;;;;;10394380;28;20200;-82
2023/07/20 15:46:39;;;;;;;2.95;0.68;;;20.80;1.00;;;;;;10381010;28;20240;-79
2023/07/20 15:52:00;;;;;;;1.00;0.80;;;20.70;1.00;;;;;;10396794;28;20208;-78
2023/07/20 15:57:21;;;;;;;1.15;0.70;;;20.50;1.00;;;;;;10365131;28;20209;-79
2023/07/20 16:02:43;;;;;;;0.77;0.60;;;20.30;99.90;;;;;;10397027;28;20212;-81
2023/07/20 16:08:05;;;;;;;1.25;0.60;;;20.30;1.00;;;;;;10393898;28;20233;-80
2023/07/20 16:13:26;;;;;;;1.30;0.80;;;20.40;99.90;;;;;;10379861;28;20193;-80
2023/07/20 16:18:51;;;;;;;1.50;0.60;;;20.30;99.90;;;;;;10397486;28;20201;-82
2023/07/20 16:24:12;;;;;;;1.77;0.93;;;20.30;99.90;;;;;;10396124;28;20232;-82
2023/07/20 16:29:34;;;;;;;1.98;0.82;;;20.30;1.00;;;;;;10393857;28;20458;-81
2023/07/20 16:34:56;;;;;;;3.60;0.82;;;20.00;99.90;;;;;;10382634;28;20203;-78
2023/07/20 16:40:30;;;;;;;1.50;0.98;;;19.90;1.00;;;;;;10402269;28;20205;-79
2023/07/20 16:46:02;;;;;;;1.90;1.45;;;19.80;1.00;;;;;;10395026;28;20394;-81
2023/07/20 16:51:43;;;;;;;1.10;0.95;;;19.60;1.00;;;;;;10396648;28;20223;-84
2023/07/20 16:57:05;;;;;;;2.10;0.90;;;19.60;1.00;;;;;;10396823;28;20220;-79
2023/07/20 17:02:26;;;;;;;1.90;1.10;;;19.70;1.00;;;;;;10409924;28;20201;-84
2023/07/20 17:07:55;;;;;;;4.07;1.10;;;19.50;1.00;;;;;;10395274;28;20216;-81
2023/07/20 17:13:16;;;;;;;1.23;0.80;;;19.50;1.00;;;;;;10395551;28;20361;-78
2023/07/20 17:18:37;;;;;;;1.52;1.08;;;19.40;1.00;;;;;;10380270;28;20240;-83
2023/07/20 17:23:59;;;;;;;3.95;1.42;;;19.20;99.90;;;;;;10411179;28;20280;-80
2023/07/20 17:29:22;;;;;;;2.97;0.93;;;19.20;99.90;;;;;;10379620;28;20225;-80
2023/07/20 17:34:43;;;;;;;1.42;0.85;;;19.00;99.90;;;;;;10394326;28;20185;-83
2023/07/20 17:40:12;;;;;;;2.47;1.00;;;18.90;99.90;;;;;;10399980;28;20205;-78
2023/07/20 17:45:36;;;;;;;1.55;1.10;;;18.80;99.90;;;;;;10393598;28;20232;-86
2023/07/20 17:50:59;;;;;;;2.33;1.20;;;18.70;99.90;;;;;;10393504;28;20260;-80
2023/07/20 17:56:21;;;;;;;1.30;0.98;;;18.60;99.90;;;;;;10407970;28;20211;-83
2023/07/20 18:01:42;;;;;;;2.08;1.00;;;18.50;99.90;;;;;;10394020;28;20200;-79
2023/07/20 18:07:06;;;;;;;1.15;1.00;;;18.40;99.90;;;;;;10393761;28;20231;-78
2023/07/20 18:12:27;;;;;;;2.83;1.35;;;18.30;99.90;;;;;;10391140;28;20215;-79
2023/07/20 18:17:49;;;;;;;1.33;1.00;;;18.20;99.90;;;;;;10393634;28;20222;-83
2023/07/20 18:23:10;;;;;;;1.40;0.80;;;18.00;99.90;;;;;;10394623;28;20220;-80
2023/07/20 18:28:31;;;;;;;2.20;1.10;;;18.00;1.00;;;;;;10378656;28;20408;-86
2023/07/20 18:33:54;;;;;;;2.55;1.38;;;17.70;99.90;;;;;;10393561;28;20251;-82
2023/07/20 18:39:15;;;;;;;2.03;1.20;;;17.70;99.90;;;;;;10393510;28;20281;-82
2023/07/20 18:44:36;;;;;;;2.33;1.20;;;17.70;99.90;;;;;;10397608;28;20266;-78
2023/07/20 18:49:58;;;;;;;2.53;1.30;;;17.60;99.90;;;;;;10392637;28;20232;-80
2023/07/20 18:55:19;;;;;;;3.92;1.42;;;17.50;99.90;;;;;;10371140;28;20194;-81
2023/07/20 19:00:40;;;;;;;3.65;1.50;;;17.50;99.90;;;;;;10374981;28;20238;-81
2023/07/20 19:06:02;;;;;;;2.20;1.23;;;17.40;99.90;;;;;;10398906;28;20250;-81
2023/07/20 19:11:24;;;;;;;2.22;1.00;;;17.30;99.90;;;;;;10365385;28;20220;-83
2023/07/20 19:16:48;;;;;;;2.28;1.17;;;17.30;1.00;;;;;;10360077;28;20268;-80
2023/07/20 19:22:09;;;;;;;3.45;1.20;;;17.10;1.00;;;;;;10396239;28;20207;-79
2023/07/20 19:27:31;;;;;;;2.92;1.35;;;17.10;1.00;;;;;;10400138;28;20491;-83
2023/07/20 19:32:52;;;;;;;3.75;1.30;;;17.00;1.00;;;;;;10397866;28;20349;-80
2023/07/20 19:38:25;;;;;;;1.75;1.23;;;16.90;1.00;;;;;;10399660;28;20242;-79
2023/07/20 19:43:47;;;;;;;1.30;1.20;;;16.80;1.00;;;;;;10414582;28;20255;-82
2023/07/20 19:49:08;;;;;;;3.63;1.52;;;16.80;1.00;;;;;;10413475;28;20318;-78
2023/07/20 19:54:29;;;;;;;2.97;2.10;;;16.80;1.00;;;;;;10398860;28;20195;-79
2023/07/20 19:59:51;;;;;;;3.72;1.83;;;16.70;1.00;;;;;;10412832;28;20299;-79
2023/07/20 20:05:14;;;;;;;2.22;1.20;;;16.60;1.00;;;;;;10397791;28;20204;-78
2023/07/20 20:10:37;;;;;;;3.70;1.50;;;16.50;1.00;;;;;;10370831;28;20402;-79
2023/07/20 20:16:04;;;;;;;3.08;1.50;;;16.40;1.00;;;;;;10360036;28;20250;-80
2023/07/20 20:21:25;;;;;;;4.30;1.92;;;16.40;1.00;;;;;;10397990;28;20196;-79
2023/07/20 20:26:47;;;;;;;3.20;1.65;;;16.30;1.00;;;;;;10412970;28;20208;-80
2023/07/20 20:32:10;;;;;;;2.83;1.42;;;16.20;9.30;;;;;;10411462;28;20207;-80
2023/07/20 20:37:31;;;;;;;5.88;1.40;;;16.20;77.00;;;;;;10403229;28;20561;-79
2023/07/20 20:42:53;;;;;;;3.33;1.42;;;16.10;99.90;;;;;;10412560;28;20199;-78
2023/07/20 20:48:14;;;;;;;2.83;1.50;;;16.10;99.90;;;;;;10391871;28;20557;-77
2023/07/20 20:53:35;;;;;;;6.05;1.42;;;16.00;99.90;;;;;;10395928;28;20296;-79
2023/07/20 20:58:57;;;;;;;2.35;1.45;;;15.90;99.90;;;;;;10396006;28;20389;-78
2023/07/20 21:04:18;;;;;;;5.28;1.80;;;15.90;99.90;;;;;;10394680;28;20209;-81
2023/07/20 21:09:43;;;;;;;4.15;1.55;;;15.90;99.90;;;;;;10376419;28;20224;-81
2023/07/20 21:15:06;;;;;;;4.05;1.48;;;15.90;99.90;;;;;;10354539;28;20279;-83
2023/07/20 21:20:27;;;;;;;1.88;1.27;;;15.80;99.90;;;;;;10407301;28;20238;-78
2023/07/20 21:25:49;;;;;;;4.05;1.75;;;15.80;1.00;;;;;;10395792;28;20192;-85
2023/07/20 21:31:10;;;;;;;5.55;1.67;;;15.70;1.00;;;;;;10393896;28;20414;-79
2023/07/20 21:36:32;;;;;;;4.95;1.85;;;15.60;1.00;;;;;;10389237;28;20227;-78
2023/07/20 21:41:53;;;;;;;4.25;2.00;;;15.50;1.00;;;;;;10378590;28;20404;-82
2023/07/20 21:47:15;;;;;;;3.40;1.42;;;15.50;1.00;;;;;;10409639;28;20236;-80
2023/07/20 21:52:36;;;;;;;3.00;1.55;;;15.50;1.00;;;;;;10395404;28;20202;-80
2023/07/20 21:57:57;;;;;;;6.18;2.05;;;15.50;1.00;;;;;;10394569;28;20266;-81
2023/07/20 22:03:20;;;;;;;5.60;2.03;;;15.40;14.80;;;;;;10378808;28;20286;-85
2023/07/20 22:08:43;;;;;;;3.88;1.77;;;15.30;99.90;;;;;;10392036;28;20273;-86
2023/07/20 22:14:04;;;;;;;4.53;2.80;;;15.20;99.90;;;;;;10395514;28;20192;-81
2023/07/20 22:19:26;;;;;;;6.40;2.92;;;15.10;99.90;;;;;;10380127;28;20412;-86
2023/07/20 22:24:48;;;;;;;6.63;2.90;;;15.10;99.90;;;;;;10401089;28;20487;-76
2023/07/20 22:30:11;;;;;;;5.35;2.20;;;15.00;1.00;;;;;;10388101;28;20236;-83
2023/07/20 22:35:33;;;;;;;4.03;1.80;;;14.90;99.90;;;;;;10400054;28;20394;-81
2023/07/20 22:40:55;;;;;;;8.02;2.67;;;14.90;1.00;;;;;;10396925;28;20203;-79
2023/07/20 22:46:17;;;;;;;6.03;2.42;;;14.90;1.00;;;;;;10402099;28;20547;-80
2023/07/20 22:51:38;;;;;;;4.85;2.28;;;14.80;1.00;;;;;;10400661;28;20416;-81
2023/07/20 22:56:59;;;;;;;6.82;3.25;;;14.90;1.00;;;;;;10400882;28;20273;-84
2023/07/20 23:02:21;;;;;;;10.48;4.85;;;14.80;1.00;;;;;;10400863;28;20224;-79
2023/07/20 23:07:43;;;;;;;9.80;3.90;;;14.70;1.00;;;;;;10361109;28;20283;-81
2023/07/20 23:13:04;;;;;;;10.73;3.78;;;14.70;1.00;;;;;;10400260;28;20202;-79
2023/07/20 23:18:26;;;;;;;7.85;3.33;;;14.70;1.00;;;;;;10400218;28;20278;-83
2023/07/20 23:23:49;;;;;;;10.38;2.63;;;14.80;1.00;;;;;;10400747;28;20212;-81
2023/07/20 23:29:11;;;;;;;4.82;2.30;;;14.80;1.00;;;;;;10399535;28;20234;-84
2023/07/20 23:34:34;;;;;;;2.90;1.50;;;14.80;1.00;;;;;;10394945;28;20267;-83
2023/07/20 23:39:55;;;;;;;4.95;1.88;;;14.90;1.00;;;;;;10394460;28;20209;-84
2023/07/20 23:45:17;;;;;;;3.03;1.55;;;14.90;1.00;;;;;;10401040;28;20230;-83
2023/07/20 23:50:44;;;;;;;3.70;1.38;;;14.90;1.00;;;;;;10397311;28;20305;-80
2023/07/20 23:56:06;;;;;;;1.92;1.23;;;14.80;99.90;;;;;;10414992;28;20227;-83
